ENY3613 KGRB-KORD
Flight info
| Callsign | ENY3613 |
|---|---|
| Flight time | 0h 33m |
| Altitude | 30000 |
| Route | FAALZ MADII7 |
| Aircraft | CRJ2/M-SDFGIRW/S |
Departure
| Time | 2026-04-14 02:25 |
|---|---|
| Airport | Austin Straubel International Airport (KGRB) |
Arrival
| Time | 2026-04-14 02:58 |
|---|---|
| Airport | Chicago O'Hare International Airport (KORD) |
| Time | Latitude | Longitude | Altitude | Speed | Heading |
|---|---|---|---|---|---|
| 2026-04-14 02:13 | 44.49118 | -88.12825 | 702 ft | 0 kts | 8° |
| 2026-04-14 02:17 | 44.49113 | -88.12825 | 702 ft | 2 kts | 7° |
| 2026-04-14 02:17 | 44.49096 | -88.12829 | 702 ft | 3 kts | 7° |
| 2026-04-14 02:17 | 44.49077 | -88.12832 | 702 ft | 3 kts | 7° |
| 2026-04-14 02:17 | 44.49056 | -88.12836 | 702 ft | 3 kts | 7° |
| 2026-04-14 02:18 | 44.49051 | -88.12837 | 702 ft | 0 kts | 7° |
| 2026-04-14 02:18 | 44.49054 | -88.12837 | 702 ft | 3 kts | 6° |
| 2026-04-14 02:19 | 44.49071 | -88.12876 | 702 ft | 7 kts | 233° |
| 2026-04-14 02:19 | 44.49012 | -88.12897 | 702 ft | 11 kts | 191° |
| 2026-04-14 02:19 | 44.48932 | -88.12943 | 702 ft | 15 kts | 212° |
| 2026-04-14 02:19 | 44.48835 | -88.13026 | 702 ft | 17 kts | 211° |
| 2026-04-14 02:20 | 44.48726 | -88.13118 | 702 ft | 19 kts | 211° |
| 2026-04-14 02:20 | 44.48620 | -88.13238 | 702 ft | 21 kts | 242° |
| 2026-04-14 02:20 | 44.48548 | -88.13423 | 702 ft | 22 kts | 239° |
| 2026-04-14 02:20 | 44.48467 | -88.13620 | 702 ft | 23 kts | 240° |
| 2026-04-14 02:21 | 44.48406 | -88.13771 | 702 ft | 13 kts | 240° |
| 2026-04-14 02:21 | 44.48366 | -88.13860 | 702 ft | 10 kts | 219° |
| 2026-04-14 02:21 | 44.48327 | -88.13852 | 702 ft | 1 kts | 147° |
| 2026-04-14 02:21 | 44.48327 | -88.13851 | 702 ft | 0 kts | 147° |
| 2026-04-14 02:23 | 44.48322 | -88.13847 | 702 ft | 3 kts | 147° |
| 2026-04-14 02:23 | 44.48269 | -88.13800 | 702 ft | 13 kts | 138° |
| 2026-04-14 02:23 | 44.48265 | -88.13748 | 702 ft | 1 kts | 60° |
| 2026-04-14 02:24 | 44.48299 | -88.13666 | 702 ft | 29 kts | 60° |
| 2026-04-14 02:24 | 44.48502 | -88.13169 | 702 ft | 90 kts | 60° |
| 2026-04-14 02:24 | 44.48916 | -88.12157 | 702 ft | 148 kts | 60° |
| 2026-04-14 02:24 | 44.49470 | -88.10854 | 1263 ft | 164 kts | 57° |
| 2026-04-14 02:25 | 44.50165 | -88.09538 | 2178 ft | 162 kts | 50° |
| 2026-04-14 02:25 | 44.50883 | -88.08410 | 3177 ft | 164 kts | 54° |
| 2026-04-14 02:25 | 44.51249 | -88.06780 | 3869 ft | 185 kts | 84° |
| 2026-04-14 02:25 | 44.51478 | -88.04891 | 4473 ft | 213 kts | 85° |
| 2026-04-14 02:26 | 44.51699 | -88.02671 | 5106 ft | 246 kts | 89° |
| 2026-04-14 02:26 | 44.51465 | -88.00165 | 5783 ft | 274 kts | 108° |
| 2026-04-14 02:26 | 44.50916 | -87.97443 | 6433 ft | 304 kts | 113° |
| 2026-04-14 02:26 | 44.50298 | -87.94627 | 7072 ft | 298 kts | 114° |
| 2026-04-14 02:27 | 44.49709 | -87.91887 | 7650 ft | 290 kts | 115° |
| 2026-04-14 02:27 | 44.49116 | -87.89193 | 8245 ft | 290 kts | 115° |
| 2026-04-14 02:27 | 44.48531 | -87.86525 | 8836 ft | 292 kts | 112° |
| 2026-04-14 02:27 | 44.48332 | -87.83613 | 9463 ft | 302 kts | 95° |
| 2026-04-14 02:28 | 44.48470 | -87.80651 | 10072 ft | 306 kts | 90° |
| 2026-04-14 02:28 | 44.48259 | -87.77788 | 10654 ft | 294 kts | 115° |
| 2026-04-14 02:28 | 44.47159 | -87.75489 | 11263 ft | 280 kts | 146° |
| 2026-04-14 02:28 | 44.45475 | -87.74146 | 11914 ft | 284 kts | 165° |
| 2026-04-14 02:29 | 44.43581 | -87.73309 | 12918 ft | 289 kts | 171° |
| 2026-04-14 02:29 | 44.41594 | -87.72657 | 13931 ft | 298 kts | 174° |
| 2026-04-14 02:29 | 44.39518 | -87.72074 | 14945 ft | 308 kts | 174° |
| 2026-04-14 02:29 | 44.37380 | -87.71521 | 15953 ft | 317 kts | 175° |
| 2026-04-14 02:30 | 44.35176 | -87.70978 | 16859 ft | 328 kts | 175° |
| 2026-04-14 02:30 | 44.32893 | -87.70440 | 17505 ft | 345 kts | 175° |
| 2026-04-14 02:30 | 44.30471 | -87.69890 | 18149 ft | 359 kts | 175° |
| 2026-04-14 02:30 | 44.27971 | -87.69338 | 18791 ft | 367 kts | 175° |
| 2026-04-14 02:31 | 44.25423 | -87.68814 | 19423 ft | 370 kts | 178° |
| 2026-04-14 02:31 | 44.22847 | -87.68681 | 20055 ft | 371 kts | 184° |
| 2026-04-14 02:31 | 44.20254 | -87.68851 | 20686 ft | 375 kts | 187° |
| 2026-04-14 02:31 | 44.17635 | -87.69169 | 21317 ft | 379 kts | 189° |
| 2026-04-14 02:32 | 44.14993 | -87.69562 | 21945 ft | 383 kts | 189° |
| 2026-04-14 02:32 | 44.12361 | -87.69991 | 22564 ft | 387 kts | 190° |
| 2026-04-14 02:32 | 44.09667 | -87.70451 | 23192 ft | 391 kts | 190° |
| 2026-04-14 02:32 | 44.06943 | -87.70931 | 23820 ft | 395 kts | 190° |
| 2026-04-14 02:33 | 44.04200 | -87.71425 | 24446 ft | 399 kts | 190° |
| 2026-04-14 02:33 | 44.02364 | -87.71759 | 24861 ft | 402 kts | 190° |
| 2026-04-14 02:33 | 43.98631 | -87.72446 | 25698 ft | 407 kts | 190° |
| 2026-04-14 02:34 | 43.93007 | -87.73494 | 26940 ft | 414 kts | 190° |
| 2026-04-14 02:34 | 43.90132 | -87.74036 | 27567 ft | 418 kts | 190° |
| 2026-04-14 02:34 | 43.87235 | -87.74587 | 28193 ft | 422 kts | 190° |
| 2026-04-14 02:34 | 43.85287 | -87.74961 | 28610 ft | 424 kts | 191° |
| 2026-04-14 02:35 | 43.82382 | -87.75659 | 29234 ft | 427 kts | 193° |
| 2026-04-14 02:35 | 43.79444 | -87.76519 | 29859 ft | 432 kts | 195° |
| 2026-04-14 02:35 | 43.76468 | -87.77470 | 30031 ft | 447 kts | 195° |
| 2026-04-14 02:35 | 43.73386 | -87.78501 | 30088 ft | 464 kts | 196° |
| 2026-04-14 02:36 | 43.70190 | -87.79600 | 30094 ft | 477 kts | 196° |
| 2026-04-14 02:36 | 43.63743 | -87.81852 | 30083 ft | 476 kts | 197° |
| 2026-04-14 02:37 | 43.57322 | -87.84112 | 30079 ft | 476 kts | 197° |
| 2026-04-14 02:37 | 43.50930 | -87.86370 | 30079 ft | 477 kts | 197° |
| 2026-04-14 02:38 | 43.44520 | -87.88640 | 30079 ft | 477 kts | 197° |
| 2026-04-14 02:38 | 43.38064 | -87.90929 | 30079 ft | 477 kts | 197° |
| 2026-04-14 02:39 | 43.31631 | -87.93215 | 30079 ft | 477 kts | 197° |
| 2026-04-14 02:39 | 43.25195 | -87.95505 | 30079 ft | 477 kts | 197° |
| 2026-04-14 02:40 | 43.18805 | -87.97783 | 30079 ft | 477 kts | 197° |
| 2026-04-14 02:40 | 43.12376 | -88.00116 | 30078 ft | 477 kts | 199° |
| 2026-04-14 02:41 | 43.06402 | -88.03939 | 30031 ft | 474 kts | 212° |
| 2026-04-14 02:41 | 43.03588 | -88.06326 | 29662 ft | 477 kts | 214° |
| 2026-04-14 02:41 | 43.00823 | -88.08839 | 29096 ft | 476 kts | 216° |
| 2026-04-14 02:41 | 42.98086 | -88.11382 | 28392 ft | 475 kts | 216° |
| 2026-04-14 02:42 | 42.95351 | -88.13903 | 27651 ft | 471 kts | 216° |
| 2026-04-14 02:42 | 42.92624 | -88.16350 | 26905 ft | 467 kts | 214° |
| 2026-04-14 02:42 | 42.89870 | -88.18549 | 26166 ft | 464 kts | 208° |
| 2026-04-14 02:42 | 42.86879 | -88.20158 | 25426 ft | 460 kts | 201° |
| 2026-04-14 02:43 | 42.83804 | -88.21363 | 24680 ft | 455 kts | 197° |
| 2026-04-14 02:43 | 42.82573 | -88.21772 | 24382 ft | 453 kts | 196° |
| 2026-04-14 02:43 | 42.82302 | -88.21858 | 24316 ft | 453 kts | 195° |
| 2026-04-14 02:44 | 42.79238 | -88.22757 | 23570 ft | 447 kts | 194° |
| 2026-04-14 02:44 | 42.76229 | -88.23550 | 22830 ft | 442 kts | 193° |
| 2026-04-14 02:44 | 42.73225 | -88.24290 | 22083 ft | 436 kts | 193° |
| 2026-04-14 02:44 | 42.70247 | -88.24993 | 21334 ft | 430 kts | 192° |
| 2026-04-14 02:45 | 42.67303 | -88.25669 | 20584 ft | 425 kts | 192° |
| 2026-04-14 02:45 | 42.64402 | -88.26323 | 19836 ft | 420 kts | 192° |
| 2026-04-14 02:45 | 42.61537 | -88.26959 | 19088 ft | 414 kts | 192° |
| 2026-04-14 02:45 | 42.58703 | -88.27580 | 18338 ft | 409 kts | 192° |
| 2026-04-14 02:46 | 42.55943 | -88.28177 | 17599 ft | 404 kts | 192° |
| 2026-04-14 02:46 | 42.53181 | -88.28769 | 16851 ft | 398 kts | 192° |
| 2026-04-14 02:46 | 42.50459 | -88.29347 | 16103 ft | 393 kts | 192° |
| 2026-04-14 02:46 | 42.47765 | -88.29816 | 15362 ft | 385 kts | 189° |
| 2026-04-14 02:47 | 42.45139 | -88.30118 | 14620 ft | 374 kts | 188° |
| 2026-04-14 02:47 | 42.42574 | -88.30329 | 13868 ft | 363 kts | 187° |
| 2026-04-14 02:47 | 42.40080 | -88.30500 | 13116 ft | 354 kts | 187° |
| 2026-04-14 02:47 | 42.37647 | -88.30663 | 12364 ft | 346 kts | 187° |
| 2026-04-14 02:48 | 42.35297 | -88.30839 | 11622 ft | 339 kts | 188° |
| 2026-04-14 02:48 | 42.32966 | -88.30924 | 11063 ft | 329 kts | 184° |
| 2026-04-14 02:48 | 42.30773 | -88.30833 | 11052 ft | 303 kts | 183° |
| 2026-04-14 02:48 | 42.28739 | -88.30693 | 10845 ft | 287 kts | 182° |
| 2026-04-14 02:49 | 42.26746 | -88.30534 | 10253 ft | 286 kts | 182° |
| 2026-04-14 02:49 | 42.24772 | -88.30365 | 9828 ft | 279 kts | 182° |
| 2026-04-14 02:49 | 42.22959 | -88.30182 | 9257 ft | 250 kts | 182° |
| 2026-04-14 02:49 | 42.21189 | -88.29994 | 8697 ft | 255 kts | 183° |
| 2026-04-14 02:50 | 42.19450 | -88.30210 | 8111 ft | 249 kts | 197° |
| 2026-04-14 02:50 | 42.17807 | -88.30842 | 7538 ft | 248 kts | 203° |
| 2026-04-14 02:50 | 42.16204 | -88.31620 | 7123 ft | 241 kts | 205° |
| 2026-04-14 02:50 | 42.14658 | -88.32422 | 6743 ft | 235 kts | 206° |
| 2026-04-14 02:51 | 42.13146 | -88.33204 | 6362 ft | 231 kts | 204° |
| 2026-04-14 02:51 | 42.11533 | -88.33530 | 5993 ft | 232 kts | 190° |
| 2026-04-14 02:51 | 42.09948 | -88.33479 | 5626 ft | 231 kts | 185° |
| 2026-04-14 02:51 | 42.08357 | -88.33303 | 5250 ft | 228 kts | 183° |
| 2026-04-14 02:52 | 42.06786 | -88.33085 | 4917 ft | 223 kts | 182° |
| 2026-04-14 02:52 | 42.05273 | -88.32855 | 4661 ft | 215 kts | 182° |
| 2026-04-14 02:52 | 42.03827 | -88.32629 | 4407 ft | 208 kts | 182° |
| 2026-04-14 02:52 | 42.02415 | -88.32109 | 4161 ft | 217 kts | 160° |
| 2026-04-14 02:53 | 42.01389 | -88.30571 | 4066 ft | 232 kts | 131° |
| 2026-04-14 02:53 | 42.00789 | -88.28521 | 4021 ft | 240 kts | 115° |
| 2026-04-14 02:53 | 42.00473 | -88.26302 | 4006 ft | 245 kts | 107° |
| 2026-04-14 02:53 | 42.00320 | -88.23996 | 4003 ft | 249 kts | 102° |
| 2026-04-14 02:54 | 42.00259 | -88.21640 | 4002 ft | 251 kts | 99° |
| 2026-04-14 02:54 | 42.00244 | -88.19289 | 4001 ft | 252 kts | 98° |
| 2026-04-14 02:54 | 42.00250 | -88.16961 | 4000 ft | 252 kts | 97° |
| 2026-04-14 02:54 | 42.00263 | -88.14596 | 3992 ft | 253 kts | 97° |
| 2026-04-14 02:55 | 42.00272 | -88.12199 | 3695 ft | 257 kts | 97° |
| 2026-04-14 02:55 | 42.00282 | -88.09802 | 3358 ft | 255 kts | 97° |
| 2026-04-14 02:55 | 42.00293 | -88.07467 | 3035 ft | 246 kts | 97° |
| 2026-04-14 02:55 | 42.00297 | -88.05162 | 2535 ft | 246 kts | 97° |
| 2026-04-14 02:56 | 42.00304 | -88.02961 | 2273 ft | 222 kts | 97° |
| 2026-04-14 02:56 | 42.00318 | -88.01029 | 1965 ft | 192 kts | 97° |
| 2026-04-14 02:56 | 42.00324 | -87.99314 | 1712 ft | 174 kts | 98° |
| 2026-04-14 02:56 | 42.00316 | -87.97742 | 1482 ft | 165 kts | 97° |
| 2026-04-14 02:57 | 42.00301 | -87.96219 | 1231 ft | 161 kts | 95° |
| 2026-04-14 02:57 | 42.00293 | -87.94791 | 1043 ft | 153 kts | 93° |
| 2026-04-14 02:57 | 42.00291 | -87.93389 | 815 ft | 146 kts | 91° |
| 2026-04-14 02:57 | 42.00294 | -87.92080 | 695 ft | 132 kts | 91° |
| 2026-04-14 02:58 | 42.00292 | -87.90996 | 675 ft | 92 kts | 90° |
| 2026-04-14 02:58 | 42.00290 | -87.90476 | 675 ft | 38 kts | 92° |
| 2026-04-14 02:58 | 42.00236 | -87.90198 | 675 ft | 26 kts | 120° |
| 2026-04-14 02:58 | 42.00167 | -87.90065 | 675 ft | 13 kts | 126° |
| 2026-04-14 02:59 | 42.00129 | -87.90007 | 675 ft | 5 kts | 139° |
| 2026-04-14 02:59 | 42.00116 | -87.89992 | 675 ft | 0 kts | 139° |
| 2026-04-14 02:59 | 42.00080 | -87.89952 | 675 ft | 13 kts | 143° |
| 2026-04-14 02:59 | 41.99980 | -87.89920 | 675 ft | 18 kts | 180° |
| 2026-04-14 03:00 | 41.99841 | -87.89927 | 675 ft | 22 kts | 198° |
| 2026-04-14 03:00 | 41.99693 | -87.90030 | 675 ft | 17 kts | 188° |
| 2026-04-14 03:00 | 41.99561 | -87.90034 | 675 ft | 22 kts | 180° |
| 2026-04-14 03:00 | 41.99394 | -87.90035 | 675 ft | 26 kts | 180° |
| 2026-04-14 03:01 | 41.99212 | -87.90035 | 675 ft | 20 kts | 180° |
| 2026-04-14 03:01 | 41.99056 | -87.90035 | 675 ft | 19 kts | 180° |
| 2026-04-14 03:01 | 41.98978 | -87.90008 | 675 ft | 13 kts | 96° |
| 2026-04-14 03:01 | 41.98977 | -87.89865 | 675 ft | 18 kts | 91° |
| 2026-04-14 03:02 | 41.98975 | -87.89673 | 675 ft | 22 kts | 90° |
| 2026-04-14 03:02 | 41.98962 | -87.89531 | 675 ft | 16 kts | 141° |
| 2026-04-14 03:02 | 41.98843 | -87.89520 | 675 ft | 20 kts | 180° |
| 2026-04-14 03:02 | 41.98688 | -87.89520 | 675 ft | 25 kts | 180° |
| 2026-04-14 03:03 | 41.98498 | -87.89521 | 675 ft | 30 kts | 180° |
| 2026-04-14 03:03 | 41.98332 | -87.89523 | 675 ft | 19 kts | 180° |
| 2026-04-14 03:03 | 41.98207 | -87.89437 | 675 ft | 23 kts | 137° |
| 2026-04-14 03:03 | 41.98118 | -87.89334 | 675 ft | 10 kts | 155° |
| 2026-04-14 03:04 | 41.98048 | -87.89363 | 675 ft | 14 kts | 232° |
| 2026-04-14 03:04 | 41.97975 | -87.89482 | 675 ft | 19 kts | 225° |
| 2026-04-14 03:04 | 41.97839 | -87.89506 | 675 ft | 23 kts | 179° |
| 2026-04-14 03:04 | 41.97664 | -87.89507 | 675 ft | 28 kts | 185° |
| 2026-04-14 03:05 | 41.97541 | -87.89585 | 675 ft | 10 kts | 221° |
| 2026-04-14 03:05 | 41.97501 | -87.89630 | 675 ft | 0 kts | 220° |
| 2026-04-14 03:05 | 41.97501 | -87.89631 | 675 ft | 1 kts | 220° |
| 2026-04-14 03:05 | 41.97498 | -87.89634 | 675 ft | 0 kts | 220° |